Time;durP1;ratioP1;P1;durP2;ratioP2;P2;SDS_P1;SDS_P2;PMS_P1;PMS_P2;Temp;Humidity;BMP_temperature;BMP_pressure;BME280_temperature;BME280_humidity;BME280_pressure;Samples;Min_cycle;Max_cycle;Signal;HPM_P1;HPM_P2
2024/02/06 00:00:34;;;;;;;159.45;107.63;;;;;;;;;;5053970;28;20056;-68
2024/02/06 00:03:00;;;;;;;155.02;108.00;;;;;;;;;;5048996;28;20080;-68
2024/02/06 00:05:27;;;;;;;153.30;108.68;;;;;;;;;;5054912;28;20013;-68
2024/02/06 00:07:53;;;;;;;157.05;110.68;;;;;;;;;;5055324;28;20371;-68
2024/02/06 00:10:19;;;;;;;165.23;112.38;;;;;;;;;;5054723;28;20083;-68
2024/02/06 00:12:46;;;;;;;155.98;110.22;;;;;;;;;;5055192;28;20405;-68
2024/02/06 00:15:12;;;;;;;163.32;111.85;;;;;;;;;;5054918;28;20017;-68
2024/02/06 00:17:38;;;;;;;165.23;112.38;;;;;;;;;;5054836;28;20024;-68
2024/02/06 00:20:04;;;;;;;160.02;109.10;;;;;;;;;;5055156;28;20021;-68
2024/02/06 00:22:32;;;;;;;166.05;110.78;;;;;;;;;;5054482;28;20028;-68
2024/02/06 00:24:58;;;;;;;162.43;111.57;;;;;;;;;;5054802;28;20021;-68
2024/02/06 00:27:24;;;;;;;159.98;112.68;;;;;;;;;;5050315;28;20112;-68
2024/02/06 00:29:54;;;;;;;161.32;112.60;;;;;;;;;;5054584;28;20017;-68
2024/02/06 00:32:21;;;;;;;168.32;113.90;;;;;;;;;;5054393;28;20090;-67
2024/02/06 00:34:47;;;;;;;160.82;109.95;;;;;;;;;;5054367;28;20020;-68
2024/02/06 00:37:13;;;;;;;165.27;112.50;;;;;;;;;;5054586;28;20029;-68
2024/02/06 00:39:39;;;;;;;167.50;114.32;;;;;;;;;;5049495;28;20037;-68
2024/02/06 00:45:09;;;;;;;163.55;111.72;;;;;;;;;;5045603;28;20035;-68
2024/02/06 00:47:35;;;;;;;165.90;110.20;;;;;;;;;;5054333;28;20036;-68
2024/02/06 00:50:01;;;;;;;161.23;111.55;;;;;;;;;;5054612;28;20061;-68
2024/02/06 00:52:27;;;;;;;159.05;110.65;;;;;;;;;;5054321;28;20110;-68
2024/02/06 00:54:53;;;;;;;164.27;110.13;;;;;;;;;;5052691;28;20573;-68
2024/02/06 00:57:19;;;;;;;163.60;112.32;;;;;;;;;;5054118;28;20057;-68
2024/02/06 00:59:45;;;;;;;159.77;110.30;;;;;;;;;;5054158;28;20106;-68
2024/02/06 01:02:11;;;;;;;165.13;113.88;;;;;;;;;;5054200;28;20061;-68
2024/02/06 01:04:37;;;;;;;165.18;111.53;;;;;;;;;;5054168;28;20031;-68
2024/02/06 01:07:04;;;;;;;164.30;110.53;;;;;;;;;;5054003;28;20052;-68
2024/02/06 01:09:30;;;;;;;168.45;114.55;;;;;;;;;;5053964;28;20340;-68
2024/02/06 01:11:56;;;;;;;167.45;114.93;;;;;;;;;;5039704;28;20047;-68
2024/02/06 01:14:22;;;;;;;161.05;111.40;;;;;;;;;;5053767;28;20108;-68
2024/02/06 01:16:48;;;;;;;166.52;113.40;;;;;;;;;;5054008;28;20116;-68
2024/02/06 01:19:14;;;;;;;174.27;117.00;;;;;;;;;;5052841;28;20061;-69
2024/02/06 01:21:40;;;;;;;168.30;115.18;;;;;;;;;;5054150;28;20458;-69
2024/02/06 01:24:07;;;;;;;165.65;114.00;;;;;;;;;;5056304;28;20020;-69
2024/02/06 01:26:33;;;;;;;167.13;116.00;;;;;;;;;;5044690;28;20044;-68
2024/02/06 01:29:05;;;;;;;171.60;115.07;;;;;;;;;;5049444;28;20467;-68
2024/02/06 01:31:32;;;;;;;170.68;115.60;;;;;;;;;;5054872;28;20024;-68
2024/02/06 01:33:58;;;;;;;169.13;115.13;;;;;;;;;;5054578;28;20029;-69
2024/02/06 01:36:24;;;;;;;167.52;115.80;;;;;;;;;;5052938;28;20094;-69
2024/02/06 01:38:50;;;;;;;172.65;114.70;;;;;;;;;;5054911;28;20032;-69
2024/02/06 01:41:16;;;;;;;167.45;114.72;;;;;;;;;;5055924;28;20102;-68
2024/02/06 01:43:42;;;;;;;173.23;115.50;;;;;;;;;;5056074;28;20443;-69
2024/02/06 01:46:08;;;;;;;164.15;112.05;;;;;;;;;;5055934;28;20040;-68
2024/02/06 01:48:34;;;;;;;159.27;110.57;;;;;;;;;;5042635;28;20356;-69
2024/02/06 01:51:01;;;;;;;167.13;110.60;;;;;;;;;;5057395;28;20108;-70
2024/02/06 01:53:27;;;;;;;159.73;110.25;;;;;;;;;;5055537;28;20484;-69
2024/02/06 01:55:54;;;;;;;159.65;108.97;;;;;;;;;;5055230;28;20025;-68
2024/02/06 01:58:20;;;;;;;167.05;110.45;;;;;;;;;;5054851;28;20025;-69
2024/02/06 02:00:47;;;;;;;160.68;108.13;;;;;;;;;;5053028;28;20479;-69
2024/02/06 02:03:13;;;;;;;162.38;109.25;;;;;;;;;;5054636;28;20037;-69
2024/02/06 02:05:40;;;;;;;157.68;107.70;;;;;;;;;;5054403;28;20020;-68
2024/02/06 02:08:06;;;;;;;164.10;106.88;;;;;;;;;;5054075;28;20025;-69
2024/02/06 02:10:32;;;;;;;155.43;105.68;;;;;;;;;;5054083;28;20040;-68
2024/02/06 02:12:58;;;;;;;151.20;103.88;;;;;;;;;;5044058;28;20107;-69
2024/02/06 02:15:24;;;;;;;157.45;106.95;;;;;;;;;;5038517;28;20025;-69
2024/02/06 02:17:50;;;;;;;150.60;104.45;;;;;;;;;;5052651;28;20033;-68
2024/02/06 02:20:17;;;;;;;152.48;104.18;;;;;;;;;;5052613;28;20028;-68
2024/02/06 02:22:43;;;;;;;158.20;106.72;;;;;;;;;;5051987;28;20896;-68
2024/02/06 02:25:10;;;;;;;153.95;104.72;;;;;;;;;;5050821;28;20056;-69
2024/02/06 02:27:36;;;;;;;153.15;105.63;;;;;;;;;;5052268;28;20040;-67
2024/02/06 02:30:03;;;;;;;158.38;107.85;;;;;;;;;;5053357;28;20439;-69
2024/02/06 02:32:30;;;;;;;163.40;106.20;;;;;;;;;;5051013;28;20475;-68
2024/02/06 02:34:56;;;;;;;158.65;105.13;;;;;;;;;;5049831;28;20051;-68
2024/02/06 02:37:22;;;;;;;156.25;107.35;;;;;;;;;;5049297;28;20029;-68
2024/02/06 02:39:48;;;;;;;153.77;103.40;;;;;;;;;;5052222;28;20029;-68
2024/02/06 02:42:14;;;;;;;149.82;104.40;;;;;;;;;;5048314;28;20465;-69
2024/02/06 02:44:40;;;;;;;155.15;104.80;;;;;;;;;;5047017;28;20129;-68
2024/02/06 02:47:06;;;;;;;162.65;107.15;;;;;;;;;;5051675;28;20166;-68
2024/02/06 02:49:32;;;;;;;149.75;102.80;;;;;;;;;;5040128;28;20585;-68
2024/02/06 02:51:58;;;;;;;159.55;106.30;;;;;;;;;;5049110;28;20556;-68
2024/02/06 02:54:27;;;;;;;156.25;106.60;;;;;;;;;;5051278;28;20112;-68
2024/02/06 02:56:55;;;;;;;158.95;106.55;;;;;;;;;;5044790;28;20048;-67
2024/02/06 02:59:21;;;;;;;161.25;105.35;;;;;;;;;;5050198;28;20018;-68
2024/02/06 03:01:47;;;;;;;156.07;104.32;;;;;;;;;;5044343;28;20025;-67
2024/02/06 03:04:13;;;;;;;156.10;103.80;;;;;;;;;;5044482;28;20045;-68
2024/02/06 03:06:39;;;;;;;156.70;106.47;;;;;;;;;;5044125;28;20028;-68
2024/02/06 03:09:05;;;;;;;154.32;105.15;;;;;;;;;;5052350;28;20032;-68
2024/02/06 03:11:32;;;;;;;154.27;104.13;;;;;;;;;;5044237;28;20068;-68
2024/02/06 03:13:58;;;;;;;150.30;101.40;;;;;;;;;;5049545;28;20075;-68
2024/02/06 03:16:24;;;;;;;156.90;103.85;;;;;;;;;;5044602;28;20022;-68
2024/02/06 03:18:50;;;;;;;156.35;105.53;;;;;;;;;;5031850;28;20423;-69
2024/02/06 03:21:16;;;;;;;158.57;105.82;;;;;;;;;;5036831;28;20479;-68
2024/02/06 03:23:42;;;;;;;149.90;102.22;;;;;;;;;;5051710;28;20075;-68
2024/02/06 03:26:08;;;;;;;159.30;107.13;;;;;;;;;;5051710;28;20014;-69
2024/02/06 03:28:35;;;;;;;158.02;104.30;;;;;;;;;;5051818;28;20021;-69
2024/02/06 03:31:01;;;;;;;156.85;105.97;;;;;;;;;;5051440;28;20028;-70
2024/02/06 03:33:27;;;;;;;154.73;107.15;;;;;;;;;;5051584;28;20517;-69
2024/02/06 03:35:53;;;;;;;156.30;108.22;;;;;;;;;;5051900;28;20043;-69
2024/02/06 03:38:21;;;;;;;154.55;106.32;;;;;;;;;;5051549;28;20036;-69
2024/02/06 03:40:47;;;;;;;152.88;105.38;;;;;;;;;;5052900;28;20374;-69
2024/02/06 03:43:13;;;;;;;158.18;109.00;;;;;;;;;;5053552;28;20094;-69
2024/02/06 03:45:39;;;;;;;153.43;104.80;;;;;;;;;;5044569;28;20306;-69
2024/02/06 03:48:05;;;;;;;163.52;110.07;;;;;;;;;;5049525;28;20034;-70
2024/02/06 03:50:32;;;;;;;148.07;103.57;;;;;;;;;;5045211;28;20029;-69
2024/02/06 03:52:58;;;;;;;156.55;104.80;;;;;;;;;;5046197;28;20025;-69
2024/02/06 03:55:24;;;;;;;158.13;106.32;;;;;;;;;;5047299;28;20033;-69
2024/02/06 03:57:49;;;;;;;156.43;107.55;;;;;;;;;;5044462;28;20459;-69
2024/02/06 04:00:16;;;;;;;153.63;103.88;;;;;;;;;;5052376;28;20059;-69
2024/02/06 04:08:49;;;;;;;161.40;103.93;;;;;;;;;;5043613;28;20515;-68
2024/02/06 04:11:15;;;;;;;159.30;105.30;;;;;;;;;;5056088;28;20045;-68
2024/02/06 04:13:41;;;;;;;156.55;104.90;;;;;;;;;;5055793;28;20471;-68
2024/02/06 04:16:07;;;;;;;155.75;105.90;;;;;;;;;;5056841;28;20146;-68
2024/02/06 04:18:34;;;;;;;149.32;102.00;;;;;;;;;;5057543;28;20505;-68
2024/02/06 04:21:00;;;;;;;157.93;106.07;;;;;;;;;;5057585;28;20389;-68
2024/02/06 04:23:26;;;;;;;146.07;101.35;;;;;;;;;;5055256;28;20025;-68
2024/02/06 04:25:52;;;;;;;155.48;104.45;;;;;;;;;;5055270;28;20020;-68
2024/02/06 04:28:18;;;;;;;153.95;103.32;;;;;;;;;;5055368;28;20025;-69
2024/02/06 04:30:45;;;;;;;156.13;103.65;;;;;;;;;;5044007;28;20147;-68
2024/02/06 04:33:11;;;;;;;153.52;101.15;;;;;;;;;;5055833;28;20025;-69
2024/02/06 04:35:47;;;;;;;156.63;103.45;;;;;;;;;;5055394;28;20171;-68
2024/02/06 04:38:13;;;;;;;160.88;105.13;;;;;;;;;;5042263;28;20021;-68
2024/02/06 04:40:40;;;;;;;156.27;104.03;;;;;;;;;;5054759;28;20021;-69
2024/02/06 04:43:06;;;;;;;155.05;105.00;;;;;;;;;;5054879;28;20037;-69
2024/02/06 04:45:33;;;;;;;153.85;103.07;;;;;;;;;;5053261;28;20494;-68
2024/02/06 04:47:59;;;;;;;148.43;99.53;;;;;;;;;;5054267;28;20028;-68
2024/02/06 04:50:25;;;;;;;158.43;102.30;;;;;;;;;;5054578;28;20115;-69
2024/02/06 04:52:51;;;;;;;157.32;103.90;;;;;;;;;;5052737;28;20061;-68
2024/02/06 04:55:17;;;;;;;156.00;103.65;;;;;;;;;;5054162;28;20029;-68
2024/02/06 04:57:43;;;;;;;155.68;101.47;;;;;;;;;;5054212;28;20487;-69
2024/02/06 05:00:13;;;;;;;152.25;101.85;;;;;;;;;;5054276;28;20028;-68
2024/02/06 05:02:40;;;;;;;163.30;106.35;;;;;;;;;;5053006;28;20407;-68
2024/02/06 05:05:06;;;;;;;152.00;102.80;;;;;;;;;;5040274;28;20115;-69
2024/02/06 05:07:32;;;;;;;153.70;103.78;;;;;;;;;;5054903;28;20029;-69
2024/02/06 05:09:58;;;;;;;154.23;105.30;;;;;;;;;;5053562;28;20494;-68
2024/02/06 05:12:24;;;;;;;145.23;100.60;;;;;;;;;;5054353;28;20056;-68
2024/02/06 05:14:51;;;;;;;158.25;105.75;;;;;;;;;;5053005;28;20475;-69
2024/02/06 05:17:17;;;;;;;152.57;102.85;;;;;;;;;;5054155;28;20129;-69
2024/02/06 05:19:43;;;;;;;153.48;102.60;;;;;;;;;;5053242;28;20035;-69
2024/02/06 05:22:09;;;;;;;155.13;102.20;;;;;;;;;;5053006;28;20041;-69
2024/02/06 05:24:35;;;;;;;155.10;101.18;;;;;;;;;;5056357;28;20124;-69
2024/02/06 05:27:05;;;;;;;150.07;102.28;;;;;;;;;;5052724;28;20057;-69
2024/02/06 05:29:31;;;;;;;150.15;103.97;;;;;;;;;;5053835;28;20052;-69
2024/02/06 05:31:58;;;;;;;159.07;105.20;;;;;;;;;;5052746;28;20390;-69
2024/02/06 05:34:24;;;;;;;158.98;105.65;;;;;;;;;;5053780;28;20017;-68
2024/02/06 05:36:50;;;;;;;151.75;100.22;;;;;;;;;;5045417;28;20052;-69
2024/02/06 05:39:16;;;;;;;150.88;99.70;;;;;;;;;;5053546;28;20021;-68
2024/02/06 05:41:42;;;;;;;156.85;103.55;;;;;;;;;;5053544;28;20509;-68
2024/02/06 05:44:08;;;;;;;156.05;105.53;;;;;;;;;;5053978;28;20025;-69
2024/02/06 05:46:34;;;;;;;152.02;102.50;;;;;;;;;;5053427;28;20067;-68
2024/02/06 05:49:03;;;;;;;154.15;103.03;;;;;;;;;;5053396;28;20028;-69
2024/02/06 05:57:36;;;;;;;154.88;102.72;;;;;;;;;;5037587;28;20032;-69
2024/02/06 06:00:06;;;;;;;156.05;103.13;;;;;;;;;;5051785;28;20398;-69
2024/02/06 06:02:32;;;;;;;156.32;104.00;;;;;;;;;;5052775;28;20083;-69
2024/02/06 06:04:58;;;;;;;152.80;101.95;;;;;;;;;;5052844;28;20016;-69
2024/02/06 06:07:24;;;;;;;156.32;103.43;;;;;;;;;;5053027;28;20108;-69
2024/02/06 06:09:50;;;;;;;153.75;101.45;;;;;;;;;;5041888;28;20515;-69
2024/02/06 06:12:16;;;;;;;153.77;103.63;;;;;;;;;;5051357;28;20044;-70
2024/02/06 06:14:42;;;;;;;148.20;99.43;;;;;;;;;;5055143;28;20051;-69
2024/02/06 06:17:08;;;;;;;150.13;101.40;;;;;;;;;;5053396;28;20025;-69
2024/02/06 06:19:34;;;;;;;153.85;102.20;;;;;;;;;;5042701;28;20021;-70
2024/02/06 06:22:06;;;;;;;153.20;102.47;;;;;;;;;;5053368;28;20064;-70
2024/02/06 06:24:39;;;;;;;147.85;100.88;;;;;;;;;;5053203;28;20558;-70
2024/02/06 06:27:05;;;;;;;149.50;101.75;;;;;;;;;;5054441;28;20025;-70
2024/02/06 06:29:31;;;;;;;154.38;104.13;;;;;;;;;;5054992;28;20021;-70
2024/02/06 06:31:57;;;;;;;154.90;104.97;;;;;;;;;;5054978;28;20053;-69
2024/02/06 06:34:23;;;;;;;153.75;101.70;;;;;;;;;;5054982;28;20017;-69
2024/02/06 06:42:56;;;;;;;148.43;101.10;;;;;;;;;;5039812;28;20501;-68
2024/02/06 06:45:22;;;;;;;142.20;97.28;;;;;;;;;;5052432;28;20029;-69
2024/02/06 06:47:48;;;;;;;145.18;99.78;;;;;;;;;;5039939;28;20032;-69
2024/02/06 06:50:14;;;;;;;148.02;98.78;;;;;;;;;;5051057;28;20029;-69
2024/02/06 06:52:41;;;;;;;150.10;99.15;;;;;;;;;;5052116;28;20057;-68
2024/02/06 06:55:08;;;;;;;151.80;101.55;;;;;;;;;;5051994;28;20024;-69
2024/02/06 06:57:35;;;;;;;149.35;99.85;;;;;;;;;;5037801;28;20041;-69
2024/02/06 07:00:07;;;;;;;150.88;103.25;;;;;;;;;;5039958;28;20113;-69
2024/02/06 07:02:33;;;;;;;148.65;100.18;;;;;;;;;;5049236;28;20033;-69
2024/02/06 07:05:01;;;;;;;146.82;99.75;;;;;;;;;;5051967;28;20067;-69
2024/02/06 07:07:28;;;;;;;153.30;100.10;;;;;;;;;;5049541;28;20017;-69
2024/02/06 07:09:53;;;;;;;153.02;101.50;;;;;;;;;;5045856;28;20032;-68
2024/02/06 07:12:19;;;;;;;151.73;99.55;;;;;;;;;;5049513;28;20475;-66
2024/02/06 07:14:45;;;;;;;153.52;99.25;;;;;;;;;;5051445;28;20033;-69
2024/02/06 07:17:11;;;;;;;152.05;101.55;;;;;;;;;;5050617;28;20384;-69
2024/02/06 07:19:37;;;;;;;150.63;98.90;;;;;;;;;;5050254;28;20079;-69
2024/02/06 07:22:03;;;;;;;157.40;99.55;;;;;;;;;;5048552;28;20175;-69
2024/02/06 07:24:29;;;;;;;149.90;100.03;;;;;;;;;;5034432;28;20025;-69
2024/02/06 07:26:56;;;;;;;145.27;100.72;;;;;;;;;;5044484;28;20493;-64
2024/02/06 07:29:22;;;;;;;154.55;102.78;;;;;;;;;;5036018;28;20009;-64
2024/02/06 07:31:48;;;;;;;153.80;104.68;;;;;;;;;;5045989;28;20028;-70
2024/02/06 07:34:18;;;;;;;149.77;101.60;;;;;;;;;;5042351;28;20032;-69
2024/02/06 07:36:45;;;;;;;158.00;102.80;;;;;;;;;;5052679;28;20033;-70
2024/02/06 07:39:18;;;;;;;150.15;100.28;;;;;;;;;;5052324;28;20032;-70
2024/02/06 07:41:44;;;;;;;149.73;100.47;;;;;;;;;;5038976;28;20391;-70
2024/02/06 07:44:10;;;;;;;150.02;101.07;;;;;;;;;;5053071;28;20390;-70
2024/02/06 07:46:36;;;;;;;150.38;98.10;;;;;;;;;;5054712;28;20033;-70
2024/02/06 07:49:03;;;;;;;147.70;101.18;;;;;;;;;;5056046;28;20024;-69
2024/02/06 07:51:29;;;;;;;155.00;102.93;;;;;;;;;;5054521;28;20025;-70
2024/02/06 07:53:56;;;;;;;156.38;101.60;;;;;;;;;;5054573;28;20154;-70
2024/02/06 07:56:22;;;;;;;150.48;99.00;;;;;;;;;;5054681;28;20383;-70
2024/02/06 07:58:48;;;;;;;148.13;100.55;;;;;;;;;;5042654;28;20030;-70
2024/02/06 08:01:15;;;;;;;147.18;97.72;;;;;;;;;;5035539;28;20059;-70
2024/02/06 08:03:41;;;;;;;150.23;99.80;;;;;;;;;;5047707;28;20033;-70
2024/02/06 08:06:07;;;;;;;143.85;97.03;;;;;;;;;;5052108;28;20551;-70
2024/02/06 08:08:33;;;;;;;149.90;98.45;;;;;;;;;;5052415;28;20586;-70
2024/02/06 08:10:59;;;;;;;151.48;98.38;;;;;;;;;;5051381;28;20079;-70
2024/02/06 08:13:26;;;;;;;150.95;99.30;;;;;;;;;;5055636;28;20466;-70
2024/02/06 08:15:52;;;;;;;146.50;100.35;;;;;;;;;;5055446;28;20035;-70
2024/02/06 08:18:18;;;;;;;143.05;97.85;;;;;;;;;;5055796;28;20025;-70
2024/02/06 08:20:45;;;;;;;150.00;101.25;;;;;;;;;;5055700;28;20037;-70
2024/02/06 08:23:12;;;;;;;149.63;100.50;;;;;;;;;;5055281;28;20043;-70
2024/02/06 08:25:38;;;;;;;151.40;100.97;;;;;;;;;;5055306;28;20031;-70
2024/02/06 08:28:05;;;;;;;147.38;101.43;;;;;;;;;;5055088;28;20115;-70
2024/02/06 08:30:32;;;;;;;147.88;98.57;;;;;;;;;;5054580;28;20111;-70
2024/02/06 08:32:58;;;;;;;148.38;102.38;;;;;;;;;;5040846;28;20037;-70
2024/02/06 08:35:24;;;;;;;151.63;103.15;;;;;;;;;;5034482;28;20033;-70
2024/02/06 08:37:50;;;;;;;148.30;101.13;;;;;;;;;;5046498;28;20074;-70
2024/02/06 08:43:19;;;;;;;152.07;102.05;;;;;;;;;;5041318;28;20047;-70
2024/02/06 08:45:45;;;;;;;149.23;102.30;;;;;;;;;;5052772;28;20116;-70
2024/02/06 08:48:12;;;;;;;155.85;103.85;;;;;;;;;;5054381;28;20056;-70
2024/02/06 08:50:38;;;;;;;150.63;104.25;;;;;;;;;;5054242;28;20041;-70
2024/02/06 08:53:05;;;;;;;159.13;105.97;;;;;;;;;;5054489;28;20497;-70
2024/02/06 08:55:31;;;;;;;153.90;105.45;;;;;;;;;;5054104;28;20024;-69
2024/02/06 08:57:57;;;;;;;157.48;105.93;;;;;;;;;;5054168;28;20017;-69
2024/02/06 09:00:23;;;;;;;154.45;104.07;;;;;;;;;;5039966;28;20120;-69
2024/02/06 09:02:49;;;;;;;153.52;104.57;;;;;;;;;;5054226;28;20029;-69
2024/02/06 09:05:15;;;;;;;163.75;109.57;;;;;;;;;;5054102;28;20112;-70
2024/02/06 09:07:41;;;;;;;158.65;108.93;;;;;;;;;;5052988;28;20025;-70
2024/02/06 09:10:08;;;;;;;162.73;107.28;;;;;;;;;;5053716;28;20474;-70
2024/02/06 09:12:34;;;;;;;159.65;106.88;;;;;;;;;;5054263;28;20073;-70
2024/02/06 09:15:01;;;;;;;157.25;107.32;;;;;;;;;;5053784;28;20021;-70
2024/02/06 09:17:31;;;;;;;156.38;107.47;;;;;;;;;;5039708;28;20075;-70
2024/02/06 09:19:57;;;;;;;162.15;107.93;;;;;;;;;;5053828;28;20025;-70
2024/02/06 09:22:23;;;;;;;164.10;111.88;;;;;;;;;;5052154;28;20048;-69
2024/02/06 09:24:49;;;;;;;157.48;108.90;;;;;;;;;;5053581;28;20021;-69
2024/02/06 09:30:20;;;;;;;162.52;108.20;;;;;;;;;;5039513;28;20446;-69
2024/02/06 09:32:46;;;;;;;154.68;104.35;;;;;;;;;;5034069;28;20088;-70
2024/02/06 09:35:12;;;;;;;157.90;108.75;;;;;;;;;;5040674;28;20386;-70
2024/02/06 09:37:38;;;;;;;154.57;107.38;;;;;;;;;;5053532;28;20048;-70
2024/02/06 09:40:05;;;;;;;159.15;107.18;;;;;;;;;;5053356;28;20033;-70
2024/02/06 09:42:31;;;;;;;155.40;105.80;;;;;;;;;;5052081;28;20041;-70
2024/02/06 09:44:59;;;;;;;152.60;105.93;;;;;;;;;;5053214;28;20024;-70
2024/02/06 09:47:27;;;;;;;151.13;103.60;;;;;;;;;;5053535;28;20174;-70
2024/02/06 09:49:53;;;;;;;156.98;105.35;;;;;;;;;;5053347;28;20100;-70
2024/02/06 09:52:20;;;;;;;141.80;98.78;;;;;;;;;;5052906;28;20055;-70
2024/02/06 09:54:50;;;;;;;145.15;97.90;;;;;;;;;;5053064;28;20024;-70
2024/02/06 09:57:20;;;;;;;132.52;90.22;;;;;;;;;;5052935;28;20021;-70
2024/02/06 09:59:51;;;;;;;137.07;94.75;;;;;;;;;;5052778;28;20028;-69
2024/02/06 10:02:17;;;;;;;132.75;91.28;;;;;;;;;;5052760;28;20034;-70
2024/02/06 10:04:43;;;;;;;139.77;94.05;;;;;;;;;;5053128;28;20032;-70
2024/02/06 10:07:12;;;;;;;142.25;95.95;;;;;;;;;;5052172;28;20036;-70
2024/02/06 10:09:38;;;;;;;132.25;89.43;;;;;;;;;;5052937;28;20031;-70
2024/02/06 10:12:04;;;;;;;124.28;84.78;;;;;;;;;;5051353;28;20190;-70
2024/02/06 10:14:30;;;;;;;113.32;75.85;;;;;;;;;;5052614;28;20090;-70
2024/02/06 10:16:56;;;;;;;108.13;74.43;;;;;;;;;;5053059;28;20470;-70
2024/02/06 10:19:35;;;;;;;103.15;70.03;;;;;;;;;;5052696;28;20040;-70
2024/02/06 10:22:01;;;;;;;114.53;75.70;;;;;;;;;;5052667;28;20052;-70
2024/02/06 10:24:29;;;;;;;113.13;78.28;;;;;;;;;;5038366;28;20040;-70
2024/02/06 10:27:00;;;;;;;117.32;81.53;;;;;;;;;;5042631;28;20104;-69
2024/02/06 10:29:27;;;;;;;117.57;79.95;;;;;;;;;;5048692;28;20060;-70
2024/02/06 10:31:58;;;;;;;112.72;77.22;;;;;;;;;;5051629;28;20028;-70
2024/02/06 10:34:32;;;;;;;119.00;81.75;;;;;;;;;;5052594;28;20123;-70
2024/02/06 10:37:01;;;;;;;111.25;79.50;;;;;;;;;;5038141;28;20021;-70
2024/02/06 10:39:30;;;;;;;123.28;84.78;;;;;;;;;;5052275;28;20021;-70
2024/02/06 10:42:03;;;;;;;122.57;81.97;;;;;;;;;;5038004;28;20061;-70
2024/02/06 10:44:29;;;;;;;117.30;82.78;;;;;;;;;;5041784;28;20082;-70
2024/02/06 10:46:59;;;;;;;114.03;79.18;;;;;;;;;;5048711;28;20021;-70
2024/02/06 10:49:26;;;;;;;122.85;81.38;;;;;;;;;;5052095;28;20564;-69
2024/02/06 10:52:01;;;;;;;123.15;79.82;;;;;;;;;;5052098;28;20017;-69
2024/02/06 10:54:28;;;;;;;113.50;80.03;;;;;;;;;;5051454;28;20016;-69
2024/02/06 10:56:59;;;;;;;104.25;72.63;;;;;;;;;;5046819;28;20103;-69
2024/02/06 10:59:31;;;;;;;113.35;75.57;;;;;;;;;;5052238;28;20352;-70
2024/02/06 11:01:57;;;;;;;102.40;69.40;;;;;;;;;;5051750;28;20033;-69
2024/02/06 11:04:24;;;;;;;100.00;69.50;;;;;;;;;;5051994;28;20013;-69
2024/02/06 11:06:51;;;;;;;102.45;70.45;;;;;;;;;;5050694;28;20021;-70
2024/02/06 11:09:18;;;;;;;98.05;65.80;;;;;;;;;;5051924;28;20017;-70
2024/02/06 11:11:45;;;;;;;103.68;69.07;;;;;;;;;;5051885;28;20084;-69
2024/02/06 11:14:12;;;;;;;91.25;63.92;;;;;;;;;;5051840;28;20103;-69
2024/02/06 11:16:42;;;;;;;97.70;63.28;;;;;;;;;;5051856;28;20052;-69
2024/02/06 11:19:11;;;;;;;98.35;66.35;;;;;;;;;;5054615;28;20044;-70
2024/02/06 11:21:40;;;;;;;83.45;57.75;;;;;;;;;;5047385;28;20120;-70
2024/02/06 11:24:07;;;;;;;95.85;66.10;;;;;;;;;;5036489;28;20019;-71
2024/02/06 11:26:33;;;;;;;91.15;60.97;;;;;;;;;;5055993;28;20142;-70
2024/02/06 11:35:40;;;;;;;92.40;63.38;;;;;;;;;;5038671;28;20024;-70
2024/02/06 11:38:07;;;;;;;86.32;57.17;;;;;;;;;;5047993;28;20040;-70
2024/02/06 11:40:33;;;;;;;83.03;57.00;;;;;;;;;;5052295;28;20017;-70
2024/02/06 11:43:02;;;;;;;89.22;60.75;;;;;;;;;;5051171;28;20029;-70
2024/02/06 11:45:29;;;;;;;95.10;63.70;;;;;;;;;;5046038;28;20370;-70
2024/02/06 11:48:00;;;;;;;88.22;61.22;;;;;;;;;;5053883;28;20033;-70
2024/02/06 11:50:46;;;;;;;92.55;61.50;;;;;;;;;;5054202;28;20021;-70
2024/02/06 11:53:17;;;;;;;92.45;63.67;;;;;;;;;;5053381;28;20071;-70
2024/02/06 11:55:44;;;;;;;98.00;65.97;;;;;;;;;;5055542;28;20021;-70
2024/02/06 11:58:10;;;;;;;99.95;68.80;;;;;;;;;;5053996;28;20028;-70
2024/02/06 12:00:36;;;;;;;96.40;67.93;;;;;;;;;;5055206;28;20051;-70
2024/02/06 12:03:02;;;;;;;93.05;65.10;;;;;;;;;;5055079;28;20490;-71
2024/02/06 12:05:36;;;;;;;101.88;69.85;;;;;;;;;;5055270;28;20021;-70
2024/02/06 12:08:03;;;;;;;105.50;69.68;;;;;;;;;;5055057;28;20064;-71
2024/02/06 12:10:30;;;;;;;100.53;70.85;;;;;;;;;;5054959;28;20037;-70
2024/02/06 12:13:05;;;;;;;109.60;76.47;;;;;;;;;;5055090;28;20063;-70
2024/02/06 12:15:32;;;;;;;113.25;79.30;;;;;;;;;;5055182;28;20475;-70
2024/02/06 12:17:58;;;;;;;114.00;78.15;;;;;;;;;;5054742;28;20029;-70
2024/02/06 12:20:27;;;;;;;107.43;75.53;;;;;;;;;;5055032;28;20036;-70
2024/02/06 12:22:59;;;;;;;111.55;77.18;;;;;;;;;;5054637;28;20495;-71
2024/02/06 12:25:27;;;;;;;107.97;78.30;;;;;;;;;;5054918;28;20029;-71
2024/02/06 12:28:15;;;;;;;106.85;76.03;;;;;;;;;;5054912;28;20028;-71
2024/02/06 12:30:46;;;;;;;111.00;73.07;;;;;;;;;;5053949;28;20019;-71
2024/02/06 12:33:12;;;;;;;108.40;74.20;;;;;;;;;;5054455;28;20029;-71
2024/02/06 12:35:39;;;;;;;106.88;71.25;;;;;;;;;;5054624;28;20025;-71
2024/02/06 12:38:05;;;;;;;103.43;73.03;;;;;;;;;;5054761;28;20123;-71
2024/02/06 12:40:32;;;;;;;109.00;72.53;;;;;;;;;;5054466;28;20020;-71
2024/02/06 12:43:05;;;;;;;97.00;67.35;;;;;;;;;;5054472;28;20120;-71
2024/02/06 12:45:32;;;;;;;96.00;64.18;;;;;;;;;;5054352;28;20403;-71
2024/02/06 12:47:59;;;;;;;99.43;66.22;;;;;;;;;;5053094;28;20025;-71
2024/02/06 12:50:25;;;;;;;88.75;61.42;;;;;;;;;;5054231;28;20506;-71
2024/02/06 12:52:52;;;;;;;80.07;54.72;;;;;;;;;;5054175;28;20017;-71
2024/02/06 12:55:21;;;;;;;76.55;53.15;;;;;;;;;;5052681;28;20029;-71
2024/02/06 12:57:48;;;;;;;79.30;54.05;;;;;;;;;;5053992;28;20494;-71
2024/02/06 13:00:23;;;;;;;80.15;54.65;;;;;;;;;;5052845;28;20031;-71
2024/02/06 13:03:02;;;;;;;74.40;51.53;;;;;;;;;;5054051;28;20033;-71
2024/02/06 13:05:28;;;;;;;74.85;51.25;;;;;;;;;;5054089;28;20040;-71
2024/02/06 13:08:05;;;;;;;74.75;52.45;;;;;;;;;;5053909;28;20056;-71
2024/02/06 13:10:31;;;;;;;75.60;51.55;;;;;;;;;;5053720;28;20044;-71
2024/02/06 13:13:03;;;;;;;73.35;50.72;;;;;;;;;;5054241;28;20023;-71
2024/02/06 13:15:29;;;;;;;80.28;52.38;;;;;;;;;;5054392;28;20053;-71
2024/02/06 13:17:58;;;;;;;67.72;47.90;;;;;;;;;;5053725;28;20067;-70
2024/02/06 13:20:24;;;;;;;70.00;48.30;;;;;;;;;;5052512;28;20029;-70
2024/02/06 13:22:50;;;;;;;75.63;48.92;;;;;;;;;;5053493;28;20043;-70
2024/02/06 13:25:19;;;;;;;73.57;49.45;;;;;;;;;;5052391;28;20475;-70
2024/02/06 13:27:45;;;;;;;71.53;49.35;;;;;;;;;;5053558;28;20109;-70
2024/02/06 13:30:12;;;;;;;73.32;47.78;;;;;;;;;;5053530;28;20017;-70
2024/02/06 13:32:38;;;;;;;75.28;49.60;;;;;;;;;;5053550;28;20025;-70
2024/02/06 13:35:04;;;;;;;74.05;50.95;;;;;;;;;;5053476;28;20095;-70
2024/02/06 13:37:35;;;;;;;73.53;50.95;;;;;;;;;;5052014;28;20029;-69
2024/02/06 13:40:01;;;;;;;78.85;51.08;;;;;;;;;;5053235;28;20067;-69
2024/02/06 13:42:27;;;;;;;70.93;48.55;;;;;;;;;;5052562;28;20551;-69
2024/02/06 13:44:53;;;;;;;67.47;47.75;;;;;;;;;;5053150;28;20025;-70
2024/02/06 13:47:19;;;;;;;79.75;52.08;;;;;;;;;;5053506;28;20032;-70
2024/02/06 13:49:45;;;;;;;75.53;51.28;;;;;;;;;;5051825;28;20111;-70
2024/02/06 13:52:36;;;;;;;77.13;52.47;;;;;;;;;;5053109;28;20040;-70
2024/02/06 13:55:03;;;;;;;67.20;46.50;;;;;;;;;;5052981;28;20039;-70
2024/02/06 13:57:32;;;;;;;73.40;48.15;;;;;;;;;;5053038;28;20013;-70
2024/02/06 13:59:58;;;;;;;60.85;41.30;;;;;;;;;;5052925;28;20108;-71
2024/02/06 14:02:24;;;;;;;65.85;41.13;;;;;;;;;;5051621;28;20115;-70
2024/02/06 14:04:50;;;;;;;65.63;43.28;;;;;;;;;;5053012;28;20393;-70
2024/02/06 14:07:16;;;;;;;63.53;43.00;;;;;;;;;;5053171;28;20116;-71
2024/02/06 14:09:42;;;;;;;64.72;43.78;;;;;;;;;;5052909;28;20036;-70
2024/02/06 14:12:09;;;;;;;65.47;45.45;;;;;;;;;;5052771;28;20048;-70
2024/02/06 14:14:35;;;;;;;64.90;43.00;;;;;;;;;;5052656;28;20036;-71
2024/02/06 14:17:01;;;;;;;71.70;45.92;;;;;;;;;;5052719;28;20528;-71
2024/02/06 14:31:41;;;;;;;74.63;45.63;;;;;;;;;;5043689;28;20395;-68
2024/02/06 14:34:07;;;;;;;62.80;41.97;;;;;;;;;;5055527;28;20046;-66
2024/02/06 14:36:33;;;;;;;68.07;41.92;;;;;;;;;;5036206;28;20021;-69
2024/02/06 14:38:59;;;;;;;61.05;42.10;;;;;;;;;;5044672;28;20021;-68
2024/02/06 14:41:26;;;;;;;63.00;41.10;;;;;;;;;;5044278;28;20075;-68
2024/02/06 14:43:54;;;;;;;62.05;41.95;;;;;;;;;;5046260;28;20479;-68